Terminal Aerodrome Forecast
Issued by NWS Wichita, KS

Home | Current Version | Previous Version | Text Only | Print | Product List | Glossary On
Versions: 1 2 3 4 5 6 7 8 9 10 11 12 13 14 15 16 17
699
FTUS43 KICT 110539
TAFICT
TAF
KICT 110539Z 1106/1206 01007KT P6SM SCT250
     FM111400 03010KT P6SM SCT015
     FM111900 VRB05KT P6SM SCT250
     FM112100 13005KT P6SM SCT250
     FM120000 18005KT P6SM SCT250=

USA.gov is the U.S. government's official web portal to all federal, state and local government web resources and services.